JES3503 SASA-SAZN
Flight info
| Callsign | JES3503 |
|---|---|
| Flight time | 2h 35m |
| Altitude | 36000 |
| Route | PONPI3A PONPI DCT TUC DCT SORTI DCT CAT DCT SOLER DCT ETALU DCT ARVET/N0461F370 DCT KOTOG KOTOG2Q |
| Aircraft | A21N/M-SDE2E3FGHIRWXY/LB1 |
Departure
| Time | 2026-05-07 17:12 |
|---|---|
| Airport | Martín Miguel de Güemes International Airport (SASA) |
Arrival
| Time | 2026-05-07 19:47 |
|---|---|
| Airport | Presidente Perón International Airport (SAZN) |
| Time | Latitude | Longitude | Altitude | Speed | Heading |
|---|---|---|---|---|---|
| 2026-05-07 16:54 | -24.84463 | -65.47964 | 4104 ft | 0 kts | 22° |
| 2026-05-07 17:04 | -24.84468 | -65.47966 | 4103 ft | 2 kts | 19° |
| 2026-05-07 17:04 | -24.84485 | -65.47971 | 4103 ft | 3 kts | 347° |
| 2026-05-07 17:04 | -24.84498 | -65.47964 | 4103 ft | 3 kts | 291° |
| 2026-05-07 17:05 | -24.84501 | -65.47945 | 4103 ft | 2 kts | 263° |
| 2026-05-07 17:05 | -24.84500 | -65.47936 | 4103 ft | 1 kts | 261° |
| 2026-05-07 17:05 | -24.84500 | -65.47935 | 4103 ft | 0 kts | 261° |
| 2026-05-07 17:07 | -24.84501 | -65.47945 | 4103 ft | 6 kts | 261° |
| 2026-05-07 17:07 | -24.84510 | -65.47995 | 4103 ft | 7 kts | 253° |
| 2026-05-07 17:07 | -24.84524 | -65.48045 | 4103 ft | 7 kts | 252° |
| 2026-05-07 17:07 | -24.84538 | -65.48091 | 4103 ft | 6 kts | 252° |
| 2026-05-07 17:08 | -24.84551 | -65.48136 | 4103 ft | 6 kts | 252° |
| 2026-05-07 17:08 | -24.84563 | -65.48178 | 4103 ft | 6 kts | 252° |
| 2026-05-07 17:08 | -24.84575 | -65.48218 | 4103 ft | 5 kts | 252° |
| 2026-05-07 17:08 | -24.84584 | -65.48247 | 4103 ft | 0 kts | 251° |
| 2026-05-07 17:09 | -24.84597 | -65.48292 | 4103 ft | 9 kts | 251° |
| 2026-05-07 17:09 | -24.84631 | -65.48350 | 4103 ft | 6 kts | 221° |
| 2026-05-07 17:09 | -24.84651 | -65.48383 | 4103 ft | 5 kts | 278° |
| 2026-05-07 17:09 | -24.84657 | -65.48414 | 4103 ft | 4 kts | 218° |
| 2026-05-07 17:10 | -24.84675 | -65.48420 | 4103 ft | 0 kts | 190° |
| 2026-05-07 17:10 | -24.84675 | -65.48421 | 4103 ft | 0 kts | 190° |
| 2026-05-07 17:11 | -24.84805 | -65.48449 | 4103 ft | 52 kts | 191° |
| 2026-05-07 17:11 | -24.85403 | -65.48581 | 4104 ft | 121 kts | 191° |
| 2026-05-07 17:11 | -24.86439 | -65.48806 | 4105 ft | 179 kts | 191° |
| 2026-05-07 17:12 | -24.87732 | -65.49087 | 4560 ft | 193 kts | 191° |
| 2026-05-07 17:12 | -24.89022 | -65.49521 | 5351 ft | 197 kts | 202° |
| 2026-05-07 17:12 | -24.90394 | -65.50105 | 5802 ft | 227 kts | 202° |
| 2026-05-07 17:12 | -24.91982 | -65.50789 | 5981 ft | 264 kts | 200° |
| 2026-05-07 17:13 | -24.93797 | -65.51614 | 6157 ft | 293 kts | 199° |
| 2026-05-07 17:13 | -24.95781 | -65.52094 | 6914 ft | 294 kts | 182° |
| 2026-05-07 17:13 | -24.97144 | -65.52055 | 7326 ft | 299 kts | 170° |
| 2026-05-07 17:13 | -24.99752 | -65.50981 | 8210 ft | 305 kts | 144° |
| 2026-05-07 17:14 | -25.00876 | -65.50037 | 8668 ft | 308 kts | 140° |
| 2026-05-07 17:14 | -25.03115 | -65.48049 | 9600 ft | 314 kts | 141° |
| 2026-05-07 17:14 | -25.04256 | -65.47013 | 10137 ft | 315 kts | 142° |
| 2026-05-07 17:14 | -25.06005 | -65.45418 | 10337 ft | 339 kts | 143° |
| 2026-05-07 17:15 | -25.08518 | -65.43114 | 10574 ft | 366 kts | 143° |
| 2026-05-07 17:15 | -25.09844 | -65.41886 | 11049 ft | 368 kts | 143° |
| 2026-05-07 17:15 | -25.11784 | -65.40083 | 11679 ft | 372 kts | 143° |
| 2026-05-07 17:15 | -25.13794 | -65.38213 | 12294 ft | 376 kts | 143° |
| 2026-05-07 17:16 | -25.15801 | -65.36392 | 12879 ft | 378 kts | 149° |
| 2026-05-07 17:16 | -25.18156 | -65.35094 | 13336 ft | 374 kts | 168° |
| 2026-05-07 17:16 | -25.20648 | -65.34660 | 14010 ft | 363 kts | 182° |
| 2026-05-07 17:16 | -25.23202 | -65.34511 | 14607 ft | 364 kts | 184° |
| 2026-05-07 17:17 | -25.25697 | -65.34383 | 15227 ft | 363 kts | 184° |
| 2026-05-07 17:17 | -25.28217 | -65.34251 | 15858 ft | 363 kts | 184° |
| 2026-05-07 17:17 | -25.30699 | -65.34117 | 16453 ft | 362 kts | 184° |
| 2026-05-07 17:17 | -25.33214 | -65.33979 | 17061 ft | 362 kts | 184° |
| 2026-05-07 17:18 | -25.35697 | -65.33840 | 17853 ft | 362 kts | 184° |
| 2026-05-07 17:18 | -25.38233 | -65.33697 | 18506 ft | 359 kts | 184° |
| 2026-05-07 17:18 | -25.40698 | -65.33558 | 19040 ft | 360 kts | 184° |
| 2026-05-07 17:18 | -25.43213 | -65.33415 | 19454 ft | 364 kts | 184° |
| 2026-05-07 17:19 | -25.45761 | -65.33269 | 19873 ft | 368 kts | 184° |
| 2026-05-07 17:19 | -25.48323 | -65.33121 | 20292 ft | 372 kts | 184° |
| 2026-05-07 17:19 | -25.50926 | -65.32971 | 20688 ft | 376 kts | 184° |
| 2026-05-07 17:19 | -25.53548 | -65.32819 | 21085 ft | 379 kts | 184° |
| 2026-05-07 17:20 | -25.56192 | -65.32666 | 21469 ft | 383 kts | 184° |
| 2026-05-07 17:20 | -25.58865 | -65.32510 | 21837 ft | 386 kts | 184° |
| 2026-05-07 17:20 | -25.61568 | -65.32353 | 22204 ft | 390 kts | 184° |
| 2026-05-07 17:20 | -25.64282 | -65.32195 | 22567 ft | 393 kts | 184° |
| 2026-05-07 17:21 | -25.67034 | -65.32035 | 22917 ft | 396 kts | 184° |
| 2026-05-07 17:21 | -25.69795 | -65.31874 | 23245 ft | 400 kts | 184° |
| 2026-05-07 17:21 | -25.72589 | -65.31711 | 23587 ft | 403 kts | 184° |
| 2026-05-07 17:21 | -25.75398 | -65.31567 | 23907 ft | 404 kts | 186° |
| 2026-05-07 17:22 | -25.78204 | -65.31665 | 24218 ft | 405 kts | 189° |
| 2026-05-07 17:22 | -25.81026 | -65.31821 | 24534 ft | 407 kts | 189° |
| 2026-05-07 17:22 | -25.83866 | -65.31981 | 24851 ft | 410 kts | 189° |
| 2026-05-07 17:22 | -25.86718 | -65.32141 | 25159 ft | 412 kts | 189° |
| 2026-05-07 17:23 | -25.89594 | -65.32302 | 25459 ft | 415 kts | 189° |
| 2026-05-07 17:23 | -25.92454 | -65.32462 | 25754 ft | 417 kts | 189° |
| 2026-05-07 17:23 | -25.95362 | -65.32624 | 26020 ft | 420 kts | 189° |
| 2026-05-07 17:23 | -25.98287 | -65.32788 | 26306 ft | 422 kts | 189° |
| 2026-05-07 17:24 | -26.01263 | -65.32954 | 26579 ft | 424 kts | 189° |
| 2026-05-07 17:24 | -26.04202 | -65.33117 | 27019 ft | 421 kts | 189° |
| 2026-05-07 17:24 | -26.07104 | -65.33279 | 27164 ft | 426 kts | 189° |
| 2026-05-07 17:24 | -26.10080 | -65.33446 | 27415 ft | 428 kts | 189° |
| 2026-05-07 17:25 | -26.13055 | -65.33612 | 27693 ft | 429 kts | 189° |
| 2026-05-07 17:25 | -26.16059 | -65.33780 | 27875 ft | 432 kts | 189° |
| 2026-05-07 17:25 | -26.19063 | -65.33948 | 28129 ft | 433 kts | 189° |
| 2026-05-07 17:25 | -26.22050 | -65.34113 | 28697 ft | 427 kts | 189° |
| 2026-05-07 17:26 | -26.28052 | -65.34450 | 28986 ft | 434 kts | 189° |
| 2026-05-07 17:26 | -26.31072 | -65.34619 | 29215 ft | 436 kts | 189° |
| 2026-05-07 17:26 | -26.34112 | -65.34790 | 29412 ft | 438 kts | 189° |
| 2026-05-07 17:27 | -26.37163 | -65.34961 | 29620 ft | 439 kts | 190° |
| 2026-05-07 17:27 | -26.40221 | -65.35132 | 29843 ft | 441 kts | 190° |
| 2026-05-07 17:27 | -26.43288 | -65.35304 | 30019 ft | 443 kts | 190° |
| 2026-05-07 17:27 | -26.46372 | -65.35477 | 30218 ft | 445 kts | 190° |
| 2026-05-07 17:28 | -26.49475 | -65.35652 | 30403 ft | 447 kts | 190° |
| 2026-05-07 17:28 | -26.52513 | -65.35823 | 30927 ft | 440 kts | 189° |
| 2026-05-07 17:28 | -26.58693 | -65.36174 | 31130 ft | 448 kts | 189° |
| 2026-05-07 17:29 | -26.61810 | -65.36349 | 31343 ft | 449 kts | 189° |
| 2026-05-07 17:29 | -26.64945 | -65.36525 | 31532 ft | 451 kts | 189° |
| 2026-05-07 17:29 | -26.68080 | -65.36701 | 31723 ft | 453 kts | 189° |
| 2026-05-07 17:29 | -26.71236 | -65.36878 | 31908 ft | 454 kts | 189° |
| 2026-05-07 17:30 | -26.74397 | -65.37056 | 32042 ft | 457 kts | 189° |
| 2026-05-07 17:30 | -26.77578 | -65.37235 | 32263 ft | 457 kts | 189° |
| 2026-05-07 17:30 | -26.80747 | -65.37412 | 32531 ft | 456 kts | 189° |
| 2026-05-07 17:30 | -26.83920 | -65.37591 | 32770 ft | 456 kts | 189° |
| 2026-05-07 17:31 | -26.87085 | -65.37769 | 32999 ft | 456 kts | 189° |
| 2026-05-07 17:31 | -26.90266 | -65.37948 | 33240 ft | 455 kts | 189° |
| 2026-05-07 17:31 | -26.93386 | -65.38124 | 33515 ft | 454 kts | 189° |
| 2026-05-07 17:31 | -26.96552 | -65.38303 | 33703 ft | 455 kts | 189° |
| 2026-05-07 17:32 | -26.99718 | -65.38482 | 33917 ft | 455 kts | 189° |
| 2026-05-07 17:32 | -27.02878 | -65.38661 | 34146 ft | 454 kts | 189° |
| 2026-05-07 17:32 | -27.06029 | -65.38839 | 34326 ft | 455 kts | 189° |
| 2026-05-07 17:32 | -27.09192 | -65.39019 | 34527 ft | 455 kts | 189° |
| 2026-05-07 17:33 | -27.12347 | -65.39198 | 34734 ft | 454 kts | 189° |
| 2026-05-07 17:33 | -27.15508 | -65.39377 | 34918 ft | 455 kts | 189° |
| 2026-05-07 17:33 | -27.18673 | -65.39557 | 35102 ft | 455 kts | 190° |
| 2026-05-07 17:33 | -27.21829 | -65.39737 | 35284 ft | 455 kts | 190° |
| 2026-05-07 17:34 | -27.24994 | -65.39917 | 35462 ft | 455 kts | 190° |
| 2026-05-07 17:34 | -27.28160 | -65.40098 | 35624 ft | 456 kts | 190° |
| 2026-05-07 17:34 | -27.31321 | -65.40277 | 35858 ft | 455 kts | 190° |
| 2026-05-07 17:34 | -27.34492 | -65.40459 | 35958 ft | 457 kts | 190° |
| 2026-05-07 17:35 | -27.40857 | -65.40822 | 35990 ft | 457 kts | 190° |
| 2026-05-07 17:35 | -27.47209 | -65.41185 | 35993 ft | 457 kts | 190° |
| 2026-05-07 17:36 | -27.53522 | -65.41546 | 35993 ft | 457 kts | 190° |
| 2026-05-07 17:36 | -27.59879 | -65.41910 | 35993 ft | 457 kts | 190° |
| 2026-05-07 17:37 | -27.66235 | -65.42274 | 35993 ft | 457 kts | 190° |
| 2026-05-07 17:37 | -27.72534 | -65.42732 | 35990 ft | 451 kts | 195° |
| 2026-05-07 17:38 | -27.78483 | -65.44606 | 35994 ft | 442 kts | 205° |
| 2026-05-07 17:38 | -27.84342 | -65.46760 | 35993 ft | 442 kts | 205° |
| 2026-05-07 17:39 | -27.90188 | -65.48925 | 35993 ft | 442 kts | 205° |
| 2026-05-07 17:39 | -27.96030 | -65.51099 | 35993 ft | 442 kts | 205° |
| 2026-05-07 17:40 | -28.01869 | -65.53280 | 35993 ft | 442 kts | 205° |
| 2026-05-07 17:40 | -28.07673 | -65.55456 | 35993 ft | 442 kts | 205° |
| 2026-05-07 17:41 | -28.13521 | -65.57653 | 35993 ft | 442 kts | 205° |
| 2026-05-07 17:41 | -28.19312 | -65.59823 | 35972 ft | 426 kts | 206° |
| 2026-05-07 17:42 | -28.24892 | -65.61928 | 35966 ft | 423 kts | 207° |
| 2026-05-07 17:42 | -28.30491 | -65.64053 | 35966 ft | 424 kts | 206° |
| 2026-05-07 17:43 | -28.36078 | -65.66171 | 35964 ft | 423 kts | 207° |
| 2026-05-07 17:43 | -28.41640 | -65.68283 | 35963 ft | 423 kts | 206° |
| 2026-05-07 17:44 | -28.47224 | -65.70405 | 35963 ft | 424 kts | 207° |
| 2026-05-07 17:44 | -28.52782 | -65.72520 | 35963 ft | 419 kts | 206° |
| 2026-05-07 17:45 | -28.58341 | -65.74600 | 35961 ft | 424 kts | 203° |
| 2026-05-07 17:45 | -28.64168 | -65.75980 | 35963 ft | 428 kts | 199° |
| 2026-05-07 17:46 | -28.70038 | -65.77249 | 35963 ft | 429 kts | 199° |
| 2026-05-07 17:46 | -28.75910 | -65.78495 | 35963 ft | 429 kts | 199° |
| 2026-05-07 17:47 | -28.81752 | -65.79728 | 35963 ft | 429 kts | 199° |
| 2026-05-07 17:47 | -28.87628 | -65.80966 | 35963 ft | 429 kts | 199° |
| 2026-05-07 17:48 | -28.93503 | -65.82204 | 35963 ft | 429 kts | 199° |
| 2026-05-07 17:48 | -28.99377 | -65.83443 | 35963 ft | 429 kts | 199° |
| 2026-05-07 17:49 | -29.05256 | -65.84683 | 35963 ft | 429 kts | 199° |
| 2026-05-07 17:49 | -29.11124 | -65.85922 | 35963 ft | 429 kts | 199° |
| 2026-05-07 17:50 | -29.17002 | -65.87165 | 35963 ft | 429 kts | 199° |
| 2026-05-07 17:50 | -29.22878 | -65.88408 | 35963 ft | 429 kts | 199° |
| 2026-05-07 17:51 | -29.28717 | -65.89646 | 35963 ft | 429 kts | 199° |
| 2026-05-07 17:51 | -29.34584 | -65.90890 | 35963 ft | 429 kts | 199° |
| 2026-05-07 17:52 | -29.40455 | -65.92137 | 35963 ft | 429 kts | 199° |
| 2026-05-07 17:52 | -29.46325 | -65.93385 | 35963 ft | 429 kts | 199° |
| 2026-05-07 17:53 | -29.52194 | -65.94635 | 35963 ft | 429 kts | 199° |
| 2026-05-07 17:53 | -29.58080 | -65.95889 | 35963 ft | 429 kts | 199° |
| 2026-05-07 17:54 | -29.63952 | -65.97142 | 35963 ft | 429 kts | 199° |
| 2026-05-07 17:54 | -29.69819 | -65.98396 | 35963 ft | 429 kts | 199° |
| 2026-05-07 17:55 | -29.75688 | -65.99651 | 35963 ft | 429 kts | 199° |
| 2026-05-07 17:55 | -29.81558 | -66.00908 | 35963 ft | 429 kts | 199° |
| 2026-05-07 17:56 | -29.87425 | -66.02166 | 35963 ft | 429 kts | 199° |
| 2026-05-07 17:56 | -29.93278 | -66.03426 | 35981 ft | 432 kts | 199° |
| 2026-05-07 17:57 | -29.98186 | -66.04479 | 35985 ft | 431 kts | 199° |
| 2026-05-07 17:57 | -30.05085 | -66.05962 | 35986 ft | 431 kts | 199° |
| 2026-05-07 17:58 | -30.10958 | -66.07228 | 35989 ft | 432 kts | 198° |
| 2026-05-07 17:58 | -30.16859 | -66.08500 | 35990 ft | 431 kts | 198° |
| 2026-05-07 17:59 | -30.22764 | -66.09775 | 35990 ft | 431 kts | 198° |
| 2026-05-07 17:59 | -30.28671 | -66.11053 | 35991 ft | 432 kts | 198° |
| 2026-05-07 18:00 | -30.34575 | -66.12331 | 35992 ft | 432 kts | 198° |
| 2026-05-07 18:00 | -30.40482 | -66.13612 | 35992 ft | 432 kts | 198° |
| 2026-05-07 18:01 | -30.45385 | -66.14676 | 35992 ft | 431 kts | 198° |
| 2026-05-07 18:01 | -30.51295 | -66.15960 | 35992 ft | 431 kts | 198° |
| 2026-05-07 18:02 | -30.61115 | -66.18097 | 35992 ft | 432 kts | 198° |
| 2026-05-07 18:03 | -30.66065 | -66.19176 | 35992 ft | 432 kts | 198° |
| 2026-05-07 18:03 | -30.71927 | -66.20455 | 35991 ft | 431 kts | 198° |
| 2026-05-07 18:04 | -30.77829 | -66.21745 | 35992 ft | 432 kts | 198° |
| 2026-05-07 18:04 | -30.83746 | -66.23040 | 35993 ft | 432 kts | 198° |
| 2026-05-07 18:05 | -30.89649 | -66.24333 | 35992 ft | 431 kts | 198° |
| 2026-05-07 18:05 | -30.95555 | -66.25628 | 35992 ft | 432 kts | 199° |
| 2026-05-07 18:06 | -31.01457 | -66.26924 | 35993 ft | 432 kts | 199° |
| 2026-05-07 18:06 | -31.07361 | -66.28223 | 35993 ft | 432 kts | 199° |
| 2026-05-07 18:07 | -31.13270 | -66.29524 | 35993 ft | 432 kts | 199° |
| 2026-05-07 18:07 | -31.19174 | -66.30825 | 35993 ft | 431 kts | 199° |
| 2026-05-07 18:08 | -31.25074 | -66.32127 | 35993 ft | 431 kts | 199° |
| 2026-05-07 18:08 | -31.30934 | -66.33422 | 35993 ft | 431 kts | 199° |
| 2026-05-07 18:09 | -31.36832 | -66.34728 | 35993 ft | 431 kts | 199° |
| 2026-05-07 18:09 | -31.42735 | -66.36036 | 35993 ft | 431 kts | 199° |
| 2026-05-07 18:10 | -31.48639 | -66.37346 | 35993 ft | 431 kts | 199° |
| 2026-05-07 18:10 | -31.54537 | -66.38656 | 35993 ft | 431 kts | 199° |
| 2026-05-07 18:11 | -31.60433 | -66.39967 | 35993 ft | 431 kts | 199° |
| 2026-05-07 18:11 | -31.66337 | -66.41282 | 35993 ft | 431 kts | 199° |
| 2026-05-07 18:12 | -31.72241 | -66.42599 | 35993 ft | 431 kts | 199° |
| 2026-05-07 18:12 | -31.78106 | -66.43909 | 35993 ft | 431 kts | 199° |
| 2026-05-07 18:13 | -31.84013 | -66.45229 | 35993 ft | 431 kts | 199° |
| 2026-05-07 18:13 | -31.89916 | -66.46551 | 35993 ft | 431 kts | 199° |
| 2026-05-07 18:14 | -31.95776 | -66.47865 | 35993 ft | 431 kts | 199° |
| 2026-05-07 18:14 | -32.01678 | -66.49189 | 35993 ft | 431 kts | 199° |
| 2026-05-07 18:15 | -32.07568 | -66.50513 | 35993 ft | 431 kts | 199° |
| 2026-05-07 18:15 | -32.13428 | -66.51977 | 35993 ft | 429 kts | 201° |
| 2026-05-07 18:16 | -32.19246 | -66.53571 | 35993 ft | 429 kts | 201° |
| 2026-05-07 18:16 | -32.25067 | -66.55156 | 35993 ft | 429 kts | 201° |
| 2026-05-07 18:17 | -32.30851 | -66.56727 | 35993 ft | 429 kts | 201° |
| 2026-05-07 18:17 | -32.36708 | -66.58318 | 35993 ft | 429 kts | 201° |
| 2026-05-07 18:18 | -32.42490 | -66.59889 | 35993 ft | 429 kts | 201° |
| 2026-05-07 18:18 | -32.48316 | -66.61474 | 35993 ft | 429 kts | 201° |
| 2026-05-07 18:19 | -32.54134 | -66.63058 | 35993 ft | 429 kts | 201° |
| 2026-05-07 18:19 | -32.59954 | -66.64645 | 35993 ft | 429 kts | 201° |
| 2026-05-07 18:20 | -32.65775 | -66.66234 | 35993 ft | 429 kts | 201° |
| 2026-05-07 18:20 | -32.71607 | -66.67828 | 35993 ft | 429 kts | 201° |
| 2026-05-07 18:21 | -32.77427 | -66.69421 | 35993 ft | 429 kts | 201° |
| 2026-05-07 18:21 | -32.83093 | -66.70986 | 36207 ft | 412 kts | 198° |
| 2026-05-07 18:22 | -32.88737 | -66.72534 | 36255 ft | 417 kts | 198° |
| 2026-05-07 18:22 | -32.94381 | -66.74080 | 36258 ft | 416 kts | 198° |
| 2026-05-07 18:23 | -33.00018 | -66.75630 | 36258 ft | 416 kts | 198° |
| 2026-05-07 18:23 | -33.05659 | -66.77183 | 36258 ft | 416 kts | 198° |
| 2026-05-07 18:24 | -33.11307 | -66.78741 | 36258 ft | 416 kts | 198° |
| 2026-05-07 18:24 | -33.16946 | -66.80299 | 36258 ft | 416 kts | 198° |
| 2026-05-07 18:25 | -33.22584 | -66.81859 | 36258 ft | 416 kts | 198° |
| 2026-05-07 18:25 | -33.28198 | -66.83414 | 36258 ft | 416 kts | 198° |
| 2026-05-07 18:26 | -33.33830 | -66.84976 | 36258 ft | 416 kts | 198° |
| 2026-05-07 18:26 | -33.39484 | -66.86547 | 36258 ft | 416 kts | 198° |
| 2026-05-07 18:27 | -33.45120 | -66.88114 | 36199 ft | 418 kts | 198° |
| 2026-05-07 18:27 | -33.47950 | -66.88902 | 36025 ft | 416 kts | 198° |
| 2026-05-07 18:27 | -33.50722 | -66.89673 | 35979 ft | 411 kts | 198° |
| 2026-05-07 18:28 | -33.56324 | -66.91237 | 35964 ft | 414 kts | 198° |
| 2026-05-07 18:28 | -33.61936 | -66.92804 | 35963 ft | 414 kts | 198° |
| 2026-05-07 18:29 | -33.67557 | -66.94376 | 35963 ft | 414 kts | 198° |
| 2026-05-07 18:29 | -33.73177 | -66.95950 | 35963 ft | 414 kts | 198° |
| 2026-05-07 18:30 | -33.78793 | -66.97524 | 35963 ft | 414 kts | 198° |
| 2026-05-07 18:30 | -33.84368 | -66.99090 | 35963 ft | 414 kts | 198° |
| 2026-05-07 18:31 | -33.89978 | -67.00667 | 35963 ft | 414 kts | 198° |
| 2026-05-07 18:31 | -33.95585 | -67.02245 | 35963 ft | 414 kts | 198° |
| 2026-05-07 18:32 | -34.01196 | -67.03827 | 35963 ft | 414 kts | 198° |
| 2026-05-07 18:32 | -34.06805 | -67.05411 | 35963 ft | 414 kts | 198° |
| 2026-05-07 18:33 | -34.12414 | -67.06997 | 35963 ft | 414 kts | 198° |
| 2026-05-07 18:33 | -34.18022 | -67.08584 | 35963 ft | 414 kts | 198° |
| 2026-05-07 18:34 | -34.23634 | -67.10175 | 35963 ft | 414 kts | 198° |
| 2026-05-07 18:34 | -34.29239 | -67.11766 | 35963 ft | 414 kts | 198° |
| 2026-05-07 18:35 | -34.34811 | -67.13349 | 35963 ft | 414 kts | 198° |
| 2026-05-07 18:35 | -34.40452 | -67.14955 | 35963 ft | 414 kts | 198° |
| 2026-05-07 18:36 | -34.46024 | -67.16543 | 35963 ft | 414 kts | 198° |
| 2026-05-07 18:36 | -34.51625 | -67.18165 | 35963 ft | 413 kts | 200° |
| 2026-05-07 18:37 | -34.57142 | -67.20102 | 35963 ft | 412 kts | 201° |
| 2026-05-07 18:37 | -34.62651 | -67.22051 | 35963 ft | 412 kts | 200° |
| 2026-05-07 18:38 | -34.68158 | -67.23995 | 35963 ft | 412 kts | 200° |
| 2026-05-07 18:38 | -34.73673 | -67.25941 | 35963 ft | 412 kts | 200° |
| 2026-05-07 18:39 | -34.79177 | -67.27884 | 35963 ft | 412 kts | 200° |
| 2026-05-07 18:39 | -34.84691 | -67.29832 | 35963 ft | 412 kts | 200° |
| 2026-05-07 18:40 | -34.90204 | -67.31783 | 35963 ft | 412 kts | 200° |
| 2026-05-07 18:40 | -34.95711 | -67.33733 | 35963 ft | 412 kts | 200° |
| 2026-05-07 18:41 | -35.01216 | -67.35686 | 35963 ft | 412 kts | 200° |
| 2026-05-07 18:41 | -35.06684 | -67.37628 | 35963 ft | 412 kts | 200° |
| 2026-05-07 18:42 | -35.12193 | -67.39588 | 35963 ft | 412 kts | 200° |
| 2026-05-07 18:42 | -35.17707 | -67.41552 | 35963 ft | 412 kts | 200° |
| 2026-05-07 18:43 | -35.23182 | -67.43505 | 35963 ft | 412 kts | 200° |
| 2026-05-07 18:43 | -35.28721 | -67.45484 | 35963 ft | 412 kts | 200° |
| 2026-05-07 18:44 | -35.34193 | -67.47442 | 35963 ft | 412 kts | 201° |
| 2026-05-07 18:44 | -35.39694 | -67.49413 | 35963 ft | 412 kts | 201° |
| 2026-05-07 18:45 | -35.45200 | -67.51388 | 35963 ft | 412 kts | 201° |
| 2026-05-07 18:45 | -35.50708 | -67.53367 | 35963 ft | 412 kts | 201° |
| 2026-05-07 18:46 | -35.55283 | -67.55013 | 35963 ft | 412 kts | 201° |
| 2026-05-07 18:46 | -35.60783 | -67.56995 | 35963 ft | 412 kts | 201° |
| 2026-05-07 18:47 | -35.66288 | -67.58981 | 35963 ft | 412 kts | 201° |
| 2026-05-07 18:47 | -35.71790 | -67.60969 | 35963 ft | 412 kts | 201° |
| 2026-05-07 18:48 | -35.77297 | -67.62962 | 35963 ft | 412 kts | 201° |
| 2026-05-07 18:48 | -35.82767 | -67.64944 | 35963 ft | 412 kts | 201° |
| 2026-05-07 18:49 | -35.88276 | -67.66943 | 35963 ft | 412 kts | 201° |
| 2026-05-07 18:49 | -35.93782 | -67.68944 | 35963 ft | 412 kts | 201° |
| 2026-05-07 18:50 | -35.99279 | -67.70944 | 35963 ft | 412 kts | 201° |
| 2026-05-07 18:50 | -36.04789 | -67.72953 | 35963 ft | 412 kts | 201° |
| 2026-05-07 18:51 | -36.10246 | -67.74944 | 35963 ft | 412 kts | 201° |
| 2026-05-07 18:51 | -36.15744 | -67.76954 | 35963 ft | 412 kts | 201° |
| 2026-05-07 18:52 | -36.21252 | -67.78971 | 35963 ft | 412 kts | 201° |
| 2026-05-07 18:52 | -36.26746 | -67.80985 | 35963 ft | 412 kts | 201° |
| 2026-05-07 18:53 | -36.32240 | -67.83002 | 35963 ft | 411 kts | 201° |
| 2026-05-07 18:53 | -36.37730 | -67.85021 | 35963 ft | 411 kts | 201° |
| 2026-05-07 18:54 | -36.43221 | -67.87043 | 35963 ft | 411 kts | 201° |
| 2026-05-07 18:54 | -36.48708 | -67.89067 | 35963 ft | 411 kts | 201° |
| 2026-05-07 18:55 | -36.54169 | -67.91084 | 35963 ft | 411 kts | 201° |
| 2026-05-07 18:55 | -36.59653 | -67.93113 | 35963 ft | 411 kts | 201° |
| 2026-05-07 18:56 | -36.65142 | -67.95146 | 35963 ft | 411 kts | 201° |
| 2026-05-07 18:56 | -36.70630 | -67.97182 | 35963 ft | 411 kts | 201° |
| 2026-05-07 18:57 | -36.76115 | -67.99220 | 35963 ft | 411 kts | 201° |
| 2026-05-07 18:57 | -36.81598 | -68.01260 | 35963 ft | 411 kts | 201° |
| 2026-05-07 18:58 | -36.87085 | -68.03305 | 35963 ft | 411 kts | 201° |
| 2026-05-07 18:58 | -36.92576 | -68.05355 | 35963 ft | 411 kts | 201° |
| 2026-05-07 18:59 | -36.98058 | -68.07404 | 35963 ft | 411 kts | 201° |
| 2026-05-07 18:59 | -37.03542 | -68.09457 | 35963 ft | 411 kts | 201° |
| 2026-05-07 19:00 | -37.09031 | -68.11515 | 35963 ft | 411 kts | 201° |
| 2026-05-07 19:00 | -37.14482 | -68.13562 | 35963 ft | 411 kts | 201° |
| 2026-05-07 19:01 | -37.19964 | -68.15623 | 35963 ft | 411 kts | 201° |
| 2026-05-07 19:01 | -37.25453 | -68.17691 | 35963 ft | 411 kts | 201° |
| 2026-05-07 19:02 | -37.30944 | -68.19762 | 35963 ft | 411 kts | 201° |
| 2026-05-07 19:02 | -37.36425 | -68.21833 | 35963 ft | 411 kts | 201° |
| 2026-05-07 19:03 | -37.42023 | -68.23494 | 35963 ft | 417 kts | 192° |
| 2026-05-07 19:03 | -37.47848 | -68.23645 | 35964 ft | 424 kts | 184° |
| 2026-05-07 19:04 | -37.53739 | -68.23402 | 35963 ft | 424 kts | 184° |
| 2026-05-07 19:04 | -37.59638 | -68.23126 | 35963 ft | 424 kts | 184° |
| 2026-05-07 19:05 | -37.65532 | -68.22831 | 35963 ft | 424 kts | 184° |
| 2026-05-07 19:05 | -37.71436 | -68.22522 | 35963 ft | 424 kts | 184° |
| 2026-05-07 19:06 | -37.77337 | -68.22204 | 35963 ft | 424 kts | 184° |
| 2026-05-07 19:06 | -37.86150 | -68.21719 | 35592 ft | 424 kts | 184° |
| 2026-05-07 19:07 | -37.89128 | -68.21555 | 34574 ft | 430 kts | 183° |
| 2026-05-07 19:07 | -37.92091 | -68.21387 | 33962 ft | 423 kts | 183° |
| 2026-05-07 19:07 | -37.95030 | -68.21221 | 33281 ft | 416 kts | 183° |
| 2026-05-07 19:07 | -37.97901 | -68.21057 | 32196 ft | 411 kts | 183° |
| 2026-05-07 19:08 | -38.00711 | -68.20898 | 31442 ft | 398 kts | 183° |
| 2026-05-07 19:08 | -38.03444 | -68.20743 | 30592 ft | 387 kts | 183° |
| 2026-05-07 19:08 | -38.06080 | -68.20593 | 29744 ft | 375 kts | 182° |
| 2026-05-07 19:08 | -38.08658 | -68.20449 | 28903 ft | 365 kts | 182° |
| 2026-05-07 19:09 | -38.11165 | -68.20307 | 27986 ft | 356 kts | 182° |
| 2026-05-07 19:09 | -38.13574 | -68.20171 | 27102 ft | 347 kts | 181° |
| 2026-05-07 19:09 | -38.15957 | -68.20037 | 26249 ft | 337 kts | 181° |
| 2026-05-07 19:09 | -38.18272 | -68.19906 | 25389 ft | 329 kts | 181° |
| 2026-05-07 19:10 | -38.20531 | -68.19778 | 24492 ft | 321 kts | 180° |
| 2026-05-07 19:10 | -38.22731 | -68.19654 | 23612 ft | 313 kts | 180° |
| 2026-05-07 19:10 | -38.24884 | -68.19529 | 22702 ft | 307 kts | 180° |
| 2026-05-07 19:10 | -38.26991 | -68.19404 | 21854 ft | 300 kts | 180° |
| 2026-05-07 19:11 | -38.29072 | -68.19281 | 20969 ft | 295 kts | 181° |
| 2026-05-07 19:11 | -38.31101 | -68.19162 | 20112 ft | 290 kts | 181° |
| 2026-05-07 19:11 | -38.33150 | -68.19036 | 19033 ft | 299 kts | 183° |
| 2026-05-07 19:11 | -38.35245 | -68.18920 | 17928 ft | 304 kts | 183° |
| 2026-05-07 19:12 | -38.37346 | -68.18805 | 17168 ft | 298 kts | 183° |
| 2026-05-07 19:12 | -38.39421 | -68.18690 | 16328 ft | 296 kts | 182° |
| 2026-05-07 19:12 | -38.41459 | -68.18575 | 15685 ft | 289 kts | 182° |
| 2026-05-07 19:12 | -38.43417 | -68.18385 | 15312 ft | 276 kts | 177° |
| 2026-05-07 19:13 | -38.45250 | -68.17846 | 15013 ft | 267 kts | 169° |
| 2026-05-07 19:13 | -38.45838 | -68.17577 | 14923 ft | 264 kts | 166° |
| 2026-05-07 19:13 | -38.46580 | -68.17162 | 14817 ft | 260 kts | 163° |
| 2026-05-07 19:13 | -38.48184 | -68.16187 | 14382 ft | 253 kts | 163° |
| 2026-05-07 19:14 | -38.49773 | -68.15200 | 13866 ft | 251 kts | 162° |
| 2026-05-07 19:14 | -38.51340 | -68.14208 | 13112 ft | 256 kts | 161° |
| 2026-05-07 19:14 | -38.52933 | -68.13184 | 12489 ft | 256 kts | 161° |
| 2026-05-07 19:14 | -38.54519 | -68.12159 | 11794 ft | 259 kts | 161° |
| 2026-05-07 19:15 | -38.56129 | -68.11111 | 11066 ft | 262 kts | 161° |
| 2026-05-07 19:15 | -38.57759 | -68.10047 | 10353 ft | 264 kts | 160° |
| 2026-05-07 19:15 | -38.59399 | -68.08974 | 9670 ft | 264 kts | 160° |
| 2026-05-07 19:15 | -38.61033 | -68.07902 | 8993 ft | 264 kts | 159° |
| 2026-05-07 19:16 | -38.62659 | -68.06835 | 8311 ft | 263 kts | 159° |
| 2026-05-07 19:16 | -38.64287 | -68.05765 | 7618 ft | 262 kts | 159° |
| 2026-05-07 19:16 | -38.65694 | -68.04839 | 7024 ft | 261 kts | 158° |
| 2026-05-07 19:16 | -38.67286 | -68.03789 | 6593 ft | 252 kts | 158° |
| 2026-05-07 19:17 | -38.68812 | -68.02782 | 6325 ft | 244 kts | 158° |
| 2026-05-07 19:17 | -38.70366 | -68.01761 | 6237 ft | 255 kts | 158° |
| 2026-05-07 19:17 | -38.71952 | -68.00710 | 6097 ft | 257 kts | 158° |
| 2026-05-07 19:17 | -38.73543 | -67.99657 | 5991 ft | 257 kts | 157° |
| 2026-05-07 19:18 | -38.75133 | -67.98605 | 5890 ft | 257 kts | 157° |
| 2026-05-07 19:18 | -38.76724 | -67.97552 | 5790 ft | 257 kts | 157° |
| 2026-05-07 19:18 | -38.78315 | -67.96499 | 5689 ft | 257 kts | 157° |
| 2026-05-07 19:18 | -38.79908 | -67.95445 | 5588 ft | 257 kts | 157° |
| 2026-05-07 19:19 | -38.81494 | -67.94395 | 5488 ft | 257 kts | 157° |
| 2026-05-07 19:19 | -38.83051 | -67.93361 | 5388 ft | 241 kts | 157° |
| 2026-05-07 19:19 | -38.84545 | -67.92604 | 5284 ft | 225 kts | 169° |
| 2026-05-07 19:19 | -38.86054 | -67.92343 | 5088 ft | 221 kts | 181° |
| 2026-05-07 19:20 | -38.87583 | -67.92294 | 4851 ft | 219 kts | 182° |
| 2026-05-07 19:20 | -38.89107 | -67.92263 | 4637 ft | 219 kts | 182° |
| 2026-05-07 19:20 | -38.90629 | -67.92246 | 4425 ft | 219 kts | 182° |
| 2026-05-07 19:20 | -38.92156 | -67.92235 | 4212 ft | 218 kts | 181° |
| 2026-05-07 19:21 | -38.93613 | -67.92476 | 3983 ft | 207 kts | 202° |
| 2026-05-07 19:21 | -38.94651 | -67.93542 | 3920 ft | 180 kts | 232° |
| 2026-05-07 19:21 | -38.94961 | -67.94984 | 3789 ft | 165 kts | 263° |
| 2026-05-07 19:21 | -38.94958 | -67.96425 | 3504 ft | 157 kts | 267° |
| 2026-05-07 19:22 | -38.94952 | -67.97826 | 3379 ft | 157 kts | 267° |
| 2026-05-07 19:22 | -38.94947 | -67.99226 | 3242 ft | 156 kts | 267° |
| 2026-05-07 19:22 | -38.94943 | -68.00624 | 3107 ft | 156 kts | 267° |
| 2026-05-07 19:22 | -38.94939 | -68.02002 | 2973 ft | 156 kts | 267° |
| 2026-05-07 19:23 | -38.94953 | -68.03390 | 2873 ft | 156 kts | 267° |
| 2026-05-07 19:23 | -38.94942 | -68.04795 | 2690 ft | 156 kts | 268° |
| 2026-05-07 19:23 | -38.94933 | -68.06161 | 2447 ft | 150 kts | 268° |
| 2026-05-07 19:23 | -38.94926 | -68.07491 | 2213 ft | 148 kts | 267° |
| 2026-05-07 19:24 | -38.94921 | -68.08809 | 1987 ft | 147 kts | 268° |
| 2026-05-07 19:24 | -38.94934 | -68.10122 | 1760 ft | 147 kts | 268° |
| 2026-05-07 19:24 | -38.94929 | -68.11429 | 1535 ft | 145 kts | 267° |
| 2026-05-07 19:24 | -38.94936 | -68.12726 | 1313 ft | 146 kts | 270° |
| 2026-05-07 19:25 | -38.94933 | -68.14024 | 1084 ft | 145 kts | 268° |
| 2026-05-07 19:25 | -38.94933 | -68.15316 | 911 ft | 138 kts | 270° |
| 2026-05-07 19:25 | -38.94923 | -68.16277 | 911 ft | 78 kts | 271° |
| 2026-05-07 19:25 | -38.94916 | -68.16721 | 911 ft | 53 kts | 271° |
| 2026-05-07 19:26 | -38.94900 | -68.17467 | 911 ft | 112 kts | 271° |
| 2026-05-07 19:26 | -38.94872 | -68.18700 | 914 ft | 159 kts | 271° |
| 2026-05-07 19:26 | -38.94837 | -68.20260 | 871 ft | 190 kts | 271° |
| 2026-05-07 19:26 | -38.94795 | -68.22004 | 881 ft | 201 kts | 272° |
| 2026-05-07 19:27 | -38.94752 | -68.23833 | 886 ft | 207 kts | 272° |
| 2026-05-07 19:27 | -38.94704 | -68.25694 | 887 ft | 209 kts | 272° |
| 2026-05-07 19:27 | -38.94649 | -68.27567 | 898 ft | 212 kts | 272° |
| 2026-05-07 19:27 | -38.94588 | -68.29466 | 895 ft | 214 kts | 272° |
| 2026-05-07 19:28 | -38.94525 | -68.31363 | 900 ft | 212 kts | 272° |
| 2026-05-07 19:28 | -38.94461 | -68.33238 | 911 ft | 210 kts | 272° |
| 2026-05-07 19:28 | -38.94401 | -68.35099 | 934 ft | 209 kts | 272° |
| 2026-05-07 19:28 | -38.94352 | -68.36910 | 932 ft | 193 kts | 272° |
| 2026-05-07 19:29 | -38.94299 | -68.38623 | 950 ft | 192 kts | 272° |
| 2026-05-07 19:29 | -38.94207 | -68.40330 | 935 ft | 191 kts | 274° |
| 2026-05-07 19:29 | -38.94090 | -68.42042 | 956 ft | 191 kts | 275° |
| 2026-05-07 19:29 | -38.93976 | -68.43738 | 1040 ft | 192 kts | 275° |
| 2026-05-07 19:30 | -38.93863 | -68.45443 | 1092 ft | 191 kts | 275° |
| 2026-05-07 19:30 | -38.93761 | -68.47163 | 1190 ft | 194 kts | 274° |
| 2026-05-07 19:30 | -38.93693 | -68.48899 | 1243 ft | 194 kts | 272° |
| 2026-05-07 19:30 | -38.93666 | -68.50620 | 1328 ft | 195 kts | 270° |
| 2026-05-07 19:31 | -38.93677 | -68.51704 | 1903 ft | 172 kts | 269° |
| 2026-05-07 19:31 | -38.93698 | -68.53693 | 3046 ft | 167 kts | 266° |
| 2026-05-07 19:31 | -38.93698 | -68.54718 | 3087 ft | 178 kts | 271° |
| 2026-05-07 19:31 | -38.93218 | -68.56298 | 3211 ft | 214 kts | 301° |
| 2026-05-07 19:32 | -38.91947 | -68.57656 | 3414 ft | 263 kts | 328° |
| 2026-05-07 19:32 | -38.90204 | -68.58473 | 4404 ft | 265 kts | 337° |
| 2026-05-07 19:32 | -38.88541 | -68.59249 | 4850 ft | 246 kts | 334° |
| 2026-05-07 19:32 | -38.86946 | -68.60161 | 4981 ft | 261 kts | 330° |
| 2026-05-07 19:33 | -38.85328 | -68.61271 | 5006 ft | 266 kts | 326° |
| 2026-05-07 19:33 | -38.83753 | -68.62534 | 5010 ft | 267 kts | 322° |
| 2026-05-07 19:33 | -38.82104 | -68.63653 | 5003 ft | 273 kts | 339° |
| 2026-05-07 19:33 | -38.80198 | -68.63874 | 5008 ft | 280 kts | 3° |
| 2026-05-07 19:34 | -38.78342 | -68.63108 | 5010 ft | 283 kts | 27° |
| 2026-05-07 19:34 | -38.76863 | -68.61504 | 5016 ft | 282 kts | 50° |
| 2026-05-07 19:34 | -38.75702 | -68.59482 | 5010 ft | 282 kts | 61° |
| 2026-05-07 19:34 | -38.75089 | -68.57138 | 5007 ft | 276 kts | 85° |
| 2026-05-07 19:35 | -38.75136 | -68.54703 | 5017 ft | 272 kts | 100° |
| 2026-05-07 19:35 | -38.75449 | -68.52320 | 5014 ft | 271 kts | 105° |
| 2026-05-07 19:35 | -38.75820 | -68.49967 | 5013 ft | 273 kts | 105° |
| 2026-05-07 19:35 | -38.76199 | -68.47573 | 5012 ft | 275 kts | 105° |
| 2026-05-07 19:36 | -38.76579 | -68.45167 | 5011 ft | 275 kts | 105° |
| 2026-05-07 19:36 | -38.76957 | -68.42763 | 5011 ft | 276 kts | 105° |
| 2026-05-07 19:36 | -38.77336 | -68.40346 | 5011 ft | 276 kts | 105° |
| 2026-05-07 19:36 | -38.77602 | -68.38653 | 5011 ft | 276 kts | 105° |
| 2026-05-07 19:37 | -38.77979 | -68.36246 | 5011 ft | 276 kts | 105° |
| 2026-05-07 19:37 | -38.78355 | -68.33836 | 5011 ft | 276 kts | 105° |
| 2026-05-07 19:37 | -38.78731 | -68.31426 | 5011 ft | 276 kts | 105° |
| 2026-05-07 19:37 | -38.79106 | -68.29022 | 5011 ft | 276 kts | 105° |
| 2026-05-07 19:38 | -38.79482 | -68.26606 | 5011 ft | 276 kts | 105° |
| 2026-05-07 19:38 | -38.79858 | -68.24187 | 5011 ft | 276 kts | 105° |
| 2026-05-07 19:38 | -38.80231 | -68.21787 | 5011 ft | 276 kts | 105° |
| 2026-05-07 19:38 | -38.80604 | -68.19375 | 5011 ft | 276 kts | 105° |
| 2026-05-07 19:39 | -38.80974 | -68.16989 | 5011 ft | 276 kts | 105° |
| 2026-05-07 19:39 | -38.81351 | -68.14548 | 5011 ft | 276 kts | 105° |
| 2026-05-07 19:39 | -38.81723 | -68.12135 | 5011 ft | 275 kts | 105° |
| 2026-05-07 19:39 | -38.82078 | -68.09811 | 5007 ft | 256 kts | 105° |
| 2026-05-07 19:40 | -38.82408 | -68.07648 | 4996 ft | 238 kts | 105° |
| 2026-05-07 19:40 | -38.82722 | -68.05605 | 5008 ft | 239 kts | 106° |
| 2026-05-07 19:40 | -38.83050 | -68.03485 | 5014 ft | 244 kts | 105° |
| 2026-05-07 19:40 | -38.83382 | -68.01324 | 5013 ft | 245 kts | 105° |
| 2026-05-07 19:41 | -38.83719 | -67.99181 | 5010 ft | 244 kts | 108° |
| 2026-05-07 19:41 | -38.84279 | -67.97188 | 5008 ft | 240 kts | 121° |
| 2026-05-07 19:41 | -38.85184 | -67.95418 | 5010 ft | 235 kts | 134° |
| 2026-05-07 19:41 | -38.86171 | -67.93775 | 4791 ft | 233 kts | 129° |
| 2026-05-07 19:42 | -38.87328 | -67.92336 | 4183 ft | 231 kts | 155° |
| 2026-05-07 19:42 | -38.88807 | -67.91837 | 3918 ft | 213 kts | 184° |
| 2026-05-07 19:42 | -38.90241 | -67.91978 | 3817 ft | 202 kts | 187° |
| 2026-05-07 19:42 | -38.91608 | -67.92054 | 3768 ft | 192 kts | 187° |
| 2026-05-07 19:43 | -38.92946 | -67.92136 | 3680 ft | 188 kts | 192° |
| 2026-05-07 19:43 | -38.94036 | -67.92792 | 3632 ft | 164 kts | 220° |
| 2026-05-07 19:43 | -38.94661 | -67.93947 | 3454 ft | 160 kts | 247° |
| 2026-05-07 19:43 | -38.94789 | -67.95390 | 3209 ft | 163 kts | 263° |
| 2026-05-07 19:44 | -38.94840 | -67.96832 | 2930 ft | 159 kts | 265° |
| 2026-05-07 19:44 | -38.94869 | -67.98242 | 2696 ft | 160 kts | 265° |
| 2026-05-07 19:44 | -38.94889 | -67.99637 | 2595 ft | 152 kts | 265° |
| 2026-05-07 19:44 | -38.94903 | -68.00984 | 2595 ft | 151 kts | 265° |
| 2026-05-07 19:45 | -38.94911 | -68.02326 | 2595 ft | 150 kts | 265° |
| 2026-05-07 19:45 | -38.94930 | -68.03671 | 2539 ft | 153 kts | 266° |
| 2026-05-07 19:45 | -38.94927 | -68.05057 | 2310 ft | 155 kts | 267° |
| 2026-05-07 19:45 | -38.94924 | -68.06447 | 2086 ft | 156 kts | 268° |
| 2026-05-07 19:46 | -38.94920 | -68.07839 | 1888 ft | 156 kts | 268° |
| 2026-05-07 19:46 | -38.94919 | -68.09231 | 1685 ft | 154 kts | 267° |
| 2026-05-07 19:46 | -38.94929 | -68.10572 | 1468 ft | 145 kts | 266° |
| 2026-05-07 19:46 | -38.94930 | -68.11833 | 1265 ft | 139 kts | 269° |
| 2026-05-07 19:47 | -38.94920 | -68.13097 | 1079 ft | 140 kts | 271° |
| 2026-05-07 19:47 | -38.94912 | -68.14370 | 936 ft | 141 kts | 270° |
| 2026-05-07 19:47 | -38.94906 | -68.15478 | 911 ft | 93 kts | 269° |
| 2026-05-07 19:47 | -38.94911 | -68.15950 | 911 ft | 28 kts | 263° |
| 2026-05-07 19:48 | -38.94915 | -68.16049 | 911 ft | 5 kts | 333° |
| 2026-05-07 19:48 | -38.94899 | -68.16031 | 911 ft | 3 kts | 92° |
| 2026-05-07 19:48 | -38.94906 | -68.15916 | 911 ft | 22 kts | 94° |
| 2026-05-07 19:48 | -38.94911 | -68.15715 | 911 ft | 23 kts | 89° |
| 2026-05-07 19:49 | -38.94909 | -68.15510 | 911 ft | 23 kts | 89° |
| 2026-05-07 19:49 | -38.94907 | -68.15304 | 911 ft | 23 kts | 89° |
| 2026-05-07 19:49 | -38.94906 | -68.15094 | 911 ft | 24 kts | 90° |
| 2026-05-07 19:49 | -38.94908 | -68.14883 | 911 ft | 24 kts | 90° |
| 2026-05-07 19:50 | -38.94910 | -68.14670 | 911 ft | 24 kts | 90° |
| 2026-05-07 19:50 | -38.94911 | -68.14456 | 911 ft | 24 kts | 90° |
| 2026-05-07 19:50 | -38.94911 | -68.14257 | 911 ft | 17 kts | 90° |
| 2026-05-07 19:50 | -38.94941 | -68.14125 | 911 ft | 16 kts | 140° |
| 2026-05-07 19:51 | -38.95032 | -68.14112 | 911 ft | 8 kts | 180° |
| 2026-05-07 19:51 | -38.95087 | -68.14108 | 911 ft | 8 kts | 169° |
| 2026-05-07 19:51 | -38.95133 | -68.14113 | 911 ft | 6 kts | 216° |
| 2026-05-07 19:51 | -38.95152 | -68.14131 | 911 ft | 0 kts | 217° |